South Queensferry, United Kingdom
Current Conditions -  °F | °C
As of 11:50 PM on Monday 20 Oct 2014 (Local Time) from EGPH Reporting Station
Overcast Overcast  
Wind Chill: 55°   Ceiling: 1800
Heat Index: 55°   Visibility: 6mi
Dew Point: 50°   Wind: 14mph
Humidity: 82%   Direction: 210°SSW
Pressure: 29.38"   Gusts: NA
Location:  55.99°N, 3.39°W
Report Text: EGPH 202250Z 21012KT 9999 BKN018 OVC023 13/10 Q0995
Loading
Personal Weather Stations






























Interactive Weather Map New forecast layout! Learn more

10-Day Weather Forecast

Advertisements
Track Severe Weather on mobile